»·PEaware :: N369LE KLBF-KGXY

N369LE :: KLBF-KGXY

FLIGHT INFORMATION

Flight Status: Arrived
Operator: Privately registered:
United States
More flights under this callsign
Pilot: Alec D. (17934)
Aircraft: CESSNA 401-UTILINER 402-BUSNESSLINER
(C402)
More flights by this aircraft type
Origin: KLBF North Platte Regl-Bird
United States
Destination: KGXY Greeley-Weld Co
United States
More flights between these airports :: More routes between these airports
Route: +SNY LANDR9
File this flight plan on PilotEdge
Remarks:
Altitude:
(Current/Filed)
10,000ft
Speed:
(Current/Filed)
180kts
Departed: 25-Feb-19 12:56 PM
Arrived: 25-Feb-19 02:04 PM
Distance/Time
Traveled:
184nm/1:07
Distance/Time
To Go:
Arrived

Flight Plot

Page will automatically refresh every two minutes.

Flight plan parsing failed; only flown route is shown


Map Options




Map Legend


Flown Route
Filed Route
Departure Airport
Arrival Airport
Navaid (VOR, NDB)
Fix

Horizontal Profiles

Position Reports

Time Latitude Longitude Heading Altitude Ground
Speed
25-Feb-19 12:44 41.131916 -100.695645 201 2779ft 0kts
25-Feb-19 12:44 41.131907 -100.695649 201 2779ft 0kts
25-Feb-19 12:46 41.131884 -100.695661 200 2779ft 0kts
25-Feb-19 12:47 41.131865 -100.695670 200 2779ft 0kts
25-Feb-19 12:47 41.131857 -100.695674 200 2779ft 0kts
25-Feb-19 12:48 41.131848 -100.695679 200 2779ft 0kts
25-Feb-19 12:49 41.131840 -100.695683 200 2779ft 0kts
25-Feb-19 12:51 41.131832 -100.695687 200 2779ft 0kts
25-Feb-19 12:51 41.131826 -100.695690 200 2779ft 0kts
25-Feb-19 12:52 41.131819 -100.695694 200 2779ft 0kts
25-Feb-19 12:53 41.130907 -100.693686 88 2779ft 12kts
25-Feb-19 12:54 41.131531 -100.690519 34 2779ft 7kts
25-Feb-19 12:55 41.128798 -100.683944 125 2779ft 83kts
25-Feb-19 12:56 41.105798 -100.650649 163 4102ft 137kts
25-Feb-19 12:57 41.088730 -100.687332 278 5305ft 143kts
25-Feb-19 12:58 41.097127 -100.740286 260 6195ft 152kts
25-Feb-19 12:59 41.096383 -100.798935 262 6912ft 161kts
25-Feb-19 13:00 41.096786 -100.857452 261 7809ft 158kts
25-Feb-19 13:01 41.097338 -100.915204 261 8712ft 154kts
25-Feb-19 13:02 41.097862 -100.971232 259 9578ft 149kts
25-Feb-19 13:03 41.098302 -101.027629 260 9996ft 161kts
25-Feb-19 13:04 41.098837 -101.089561 260 9999ft 173kts
25-Feb-19 13:05 41.099349 -101.155579 261 9990ft 183kts
25-Feb-19 13:06 41.099926 -101.224252 261 9994ft 188kts
25-Feb-19 13:07 41.100370 -101.294526 261 9983ft 191kts
25-Feb-19 13:08 41.100825 -101.365329 261 9968ft 192kts
25-Feb-19 13:09 41.101192 -101.436622 261 9971ft 193kts
25-Feb-19 13:10 41.101501 -101.507905 261 9969ft 194kts
25-Feb-19 13:11 41.101816 -101.579543 261 9961ft 194kts
25-Feb-19 13:12 41.102060 -101.651695 261 9957ft 195kts
25-Feb-19 13:13 41.102243 -101.723891 261 9951ft 197kts
25-Feb-19 13:14 41.102452 -101.796680 261 9934ft 197kts
25-Feb-19 13:15 41.102570 -101.868957 261 9941ft 196kts
25-Feb-19 13:16 41.102633 -101.941553 261 9927ft 196kts
25-Feb-19 13:17 41.102666 -102.013677 261 9927ft 196kts
25-Feb-19 13:18 41.102642 -102.086126 261 9923ft 197kts
25-Feb-19 13:19 41.102563 -102.159163 261 9883ft 197kts
25-Feb-19 13:20 41.102423 -102.230595 267 10060ft 186kts
25-Feb-19 13:21 41.102305 -102.298533 270 10075ft 183kts
25-Feb-19 13:22 41.102162 -102.366047 270 10063ft 182kts
25-Feb-19 13:23 41.101949 -102.433249 270 10053ft 182kts
25-Feb-19 13:24 41.101693 -102.500544 270 10039ft 182kts
25-Feb-19 13:25 41.101394 -102.567647 270 10034ft 182kts
25-Feb-19 13:26 41.101058 -102.634849 269 10025ft 182kts
25-Feb-19 13:27 41.100682 -102.702255 269 10016ft 182kts
25-Feb-19 13:28 41.100268 -102.769571 269 10004ft 182kts
25-Feb-19 13:29 41.099812 -102.837032 269 9999ft 182kts
25-Feb-19 13:30 41.099321 -102.904295 269 9998ft 182kts
25-Feb-19 13:31 41.098551 -102.971774 263 9993ft 183kts
25-Feb-19 13:32 41.067400 -103.025049 228 9997ft 186kts
25-Feb-19 13:33 41.031473 -103.074646 229 9995ft 186kts
25-Feb-19 13:34 40.995627 -103.124729 229 9991ft 187kts
25-Feb-19 13:35 40.959807 -103.174794 228 9985ft 187kts
25-Feb-19 13:36 40.923792 -103.225070 228 9978ft 188kts
25-Feb-19 13:37 40.887781 -103.275252 228 9968ft 188kts
25-Feb-19 13:38 40.851687 -103.325471 228 9963ft 188kts
25-Feb-19 13:39 40.815393 -103.375875 228 9960ft 189kts
25-Feb-19 13:40 40.779195 -103.426074 228 9958ft 189kts
25-Feb-19 13:41 40.742740 -103.476424 227 9956ft 189kts
25-Feb-19 13:42 40.706197 -103.526395 227 9954ft 189kts
25-Feb-19 13:43 40.669744 -103.576586 227 9951ft 190kts
25-Feb-19 13:44 40.633069 -103.627061 227 9947ft 190kts
25-Feb-19 13:45 40.596390 -103.677468 226 9936ft 191kts
25-Feb-19 13:46 40.559393 -103.728048 226 9926ft 191kts
25-Feb-19 13:47 40.522493 -103.778538 226 9923ft 191kts
25-Feb-19 13:48 40.485569 -103.829013 226 9919ft 192kts
25-Feb-19 13:49 40.448387 -103.879754 226 9918ft 192kts
25-Feb-19 13:50 40.411298 -103.930287 226 9917ft 192kts
25-Feb-19 13:51 40.374019 -103.981005 225 9921ft 192kts
25-Feb-19 13:52 40.347592 -104.039626 272 9635ft 204kts
25-Feb-19 13:53 40.356515 -104.116070 280 8945ft 218kts
25-Feb-19 13:54 40.368762 -104.195178 280 8207ft 223kts
25-Feb-19 13:55 40.381233 -104.273653 281 7411ft 216kts
25-Feb-19 13:56 40.393262 -104.349387 281 6794ft 206kts
25-Feb-19 13:57 40.404563 -104.420939 281 6306ft 196kts
25-Feb-19 13:58 40.415417 -104.489485 279 5804ft 189kts
25-Feb-19 13:59 40.425811 -104.556865 279 5480ft 181kts
25-Feb-19 14:00 40.439881 -104.615049 296 5330ft 141kts
25-Feb-19 14:01 40.452592 -104.658786 261 5183ft 124kts
25-Feb-19 14:02 40.432323 -104.655313 100 4867ft 114kts
25-Feb-19 14:03 40.428193 -104.634413 124 4700ft 11kts
25-Feb-19 14:04 40.427490 -104.634471 198 4700ft 0kts
25-Feb-19 14:05 40.427121 -104.636751 270 4700ft 11kts
25-Feb-19 14:06 40.426853 -104.637121 188 4700ft 0kts
25-Feb-19 14:07 40.426853 -104.637121 188 4700ft 0kts
25-Feb-19 14:08 40.426853 -104.637121 188 4700ft 0kts
25-Feb-19 14:09 40.426853 -104.637121 188 4700ft 0kts
25-Feb-19 14:10 40.426853 -104.637121 188 4700ft 0kts
25-Feb-19 14:11 40.426853 -104.637121 188 4700ft 0kts
25-Feb-19 14:12 40.426853 -104.637121 188 4700ft 0kts
25-Feb-19 14:13 40.426853 -104.637121 188 4700ft 0kts
25-Feb-19 14:14 40.426853 -104.637121 188 4700ft 0kts
25-Feb-19 14:15 40.426853 -104.637121 188 4700ft 0kts
25-Feb-19 14:16 40.426853 -104.637121 188 4700ft 0kts
25-Feb-19 14:17 40.426853 -104.637121 188 4700ft 0kts

Navigation Log

Ident Type
Flight plan parsing failed, navigation log unavailable